sensor_id;sensor_type;location;lat;lon;timestamp;temperature;humidity
10306;DHT22;5198;52.382;9.020;2023-07-30T00:00:45;19.10;99.90
10306;DHT22;5198;52.382;9.020;2023-07-30T00:04:49;19.10;99.90
10306;DHT22;5198;52.382;9.020;2023-07-30T00:08:52;19.00;99.90
10306;DHT22;5198;52.382;9.020;2023-07-30T00:12:56;19.00;99.90
10306;DHT22;5198;52.382;9.020;2023-07-30T00:16:59;19.00;99.90
10306;DHT22;5198;52.382;9.020;2023-07-30T00:21:03;19.00;99.90
10306;DHT22;5198;52.382;9.020;2023-07-30T00:25:06;19.00;99.90
10306;DHT22;5198;52.382;9.020;2023-07-30T00:29:10;18.90;99.90
10306;DHT22;5198;52.382;9.020;2023-07-30T00:33:12;18.90;99.90
10306;DHT22;5198;52.382;9.020;2023-07-30T00:37:17;18.90;99.90
10306;DHT22;5198;52.382;9.020;2023-07-30T00:41:20;18.80;99.90
10306;DHT22;5198;52.382;9.020;2023-07-30T00:45:23;18.80;99.90
10306;DHT22;5198;52.382;9.020;2023-07-30T00:49:26;18.70;99.90
10306;DHT22;5198;52.382;9.020;2023-07-30T00:53:30;18.70;99.90
10306;DHT22;5198;52.382;9.020;2023-07-30T00:57:33;18.60;99.90
10306;DHT22;5198;52.382;9.020;2023-07-30T01:01:36;18.50;99.90
10306;DHT22;5198;52.382;9.020;2023-07-30T01:05:41;18.40;99.90
10306;DHT22;5198;52.382;9.020;2023-07-30T01:09:45;18.40;99.90
10306;DHT22;5198;52.382;9.020;2023-07-30T01:13:48;18.40;99.90
10306;DHT22;5198;52.382;9.020;2023-07-30T01:17:51;18.30;99.90
10306;DHT22;5198;52.382;9.020;2023-07-30T01:21:55;18.30;99.90
10306;DHT22;5198;52.382;9.020;2023-07-30T01:25:59;18.20;99.90
10306;DHT22;5198;52.382;9.020;2023-07-30T01:30:04;18.10;99.90
10306;DHT22;5198;52.382;9.020;2023-07-30T01:34:09;18.10;99.90
10306;DHT22;5198;52.382;9.020;2023-07-30T01:38:13;18.00;99.90
10306;DHT22;5198;52.382;9.020;2023-07-30T01:42:17;18.00;99.90
10306;DHT22;5198;52.382;9.020;2023-07-30T01:46:20;17.90;99.90
10306;DHT22;5198;52.382;9.020;2023-07-30T01:50:23;17.90;99.90
10306;DHT22;5198;52.382;9.020;2023-07-30T01:54:27;17.80;99.90
10306;DHT22;5198;52.382;9.020;2023-07-30T01:58:30;17.80;99.90
10306;DHT22;5198;52.382;9.020;2023-07-30T02:02:33;17.70;99.90
10306;DHT22;5198;52.382;9.020;2023-07-30T02:06:37;17.60;99.90
10306;DHT22;5198;52.382;9.020;2023-07-30T02:10:41;17.60;99.90
10306;DHT22;5198;52.382;9.020;2023-07-30T02:14:44;17.50;99.90
10306;DHT22;5198;52.382;9.020;2023-07-30T02:18:47;17.40;99.90
10306;DHT22;5198;52.382;9.020;2023-07-30T02:22:50;17.40;99.90
10306;DHT22;5198;52.382;9.020;2023-07-30T02:26:54;17.30;99.90
10306;DHT22;5198;52.382;9.020;2023-07-30T02:30:57;17.20;99.90
10306;DHT22;5198;52.382;9.020;2023-07-30T02:35:00;17.10;99.90
10306;DHT22;5198;52.382;9.020;2023-07-30T02:39:03;17.10;99.90
10306;DHT22;5198;52.382;9.020;2023-07-30T02:43:07;17.00;99.90
10306;DHT22;5198;52.382;9.020;2023-07-30T02:47:10;17.00;99.90
10306;DHT22;5198;52.382;9.020;2023-07-30T02:51:13;17.00;99.90
10306;DHT22;5198;52.382;9.020;2023-07-30T02:55:16;16.90;99.90
10306;DHT22;5198;52.382;9.020;2023-07-30T02:59:21;16.90;99.90
10306;DHT22;5198;52.382;9.020;2023-07-30T03:03:24;16.80;99.90
10306;DHT22;5198;52.382;9.020;2023-07-30T03:07:27;16.80;99.90
10306;DHT22;5198;52.382;9.020;2023-07-30T03:11:30;16.80;99.90
10306;DHT22;5198;52.382;9.020;2023-07-30T03:15:34;16.70;99.90
10306;DHT22;5198;52.382;9.020;2023-07-30T03:19:37;16.70;99.90
10306;DHT22;5198;52.382;9.020;2023-07-30T03:23:40;16.70;99.90
10306;DHT22;5198;52.382;9.020;2023-07-30T03:27:45;16.60;99.90
10306;DHT22;5198;52.382;9.020;2023-07-30T03:31:50;16.60;99.90
10306;DHT22;5198;52.382;9.020;2023-07-30T03:35:52;16.60;99.90
10306;DHT22;5198;52.382;9.020;2023-07-30T03:39:55;16.60;99.90
10306;DHT22;5198;52.382;9.020;2023-07-30T03:43:58;16.60;99.90
10306;DHT22;5198;52.382;9.020;2023-07-30T03:48:03;16.50;99.90
10306;DHT22;5198;52.382;9.020;2023-07-30T03:52:06;16.50;99.90
10306;DHT22;5198;52.382;9.020;2023-07-30T03:56:10;16.50;99.90
10306;DHT22;5198;52.382;9.020;2023-07-30T04:00:13;16.50;99.90
10306;DHT22;5198;52.382;9.020;2023-07-30T04:04:17;16.40;99.90
10306;DHT22;5198;52.382;9.020;2023-07-30T04:08:20;16.40;99.90
10306;DHT22;5198;52.382;9.020;2023-07-30T04:12:23;16.40;99.90
10306;DHT22;5198;52.382;9.020;2023-07-30T04:16:26;16.40;99.90
10306;DHT22;5198;52.382;9.020;2023-07-30T04:20:31;16.50;99.90
10306;DHT22;5198;52.382;9.020;2023-07-30T04:24:34;16.50;99.90
10306;DHT22;5198;52.382;9.020;2023-07-30T04:28:36;16.50;99.90
10306;DHT22;5198;52.382;9.020;2023-07-30T04:32:40;16.50;99.90
10306;DHT22;5198;52.382;9.020;2023-07-30T04:36:44;16.50;99.90
10306;DHT22;5198;52.382;9.020;2023-07-30T04:40:47;16.60;99.90
10306;DHT22;5198;52.382;9.020;2023-07-30T04:44:50;16.60;99.90
10306;DHT22;5198;52.382;9.020;2023-07-30T04:48:53;16.60;99.90
10306;DHT22;5198;52.382;9.020;2023-07-30T04:52:57;16.70;99.90
10306;DHT22;5198;52.382;9.020;2023-07-30T04:57:00;16.70;99.90
10306;DHT22;5198;52.382;9.020;2023-07-30T05:01:03;16.70;99.90
10306;DHT22;5198;52.382;9.020;2023-07-30T05:05:06;16.70;99.90
10306;DHT22;5198;52.382;9.020;2023-07-30T05:09:11;16.80;99.90
10306;DHT22;5198;52.382;9.020;2023-07-30T05:13:15;16.80;99.90
10306;DHT22;5198;52.382;9.020;2023-07-30T05:17:18;16.90;99.90
10306;DHT22;5198;52.382;9.020;2023-07-30T05:21:21;16.90;99.90
10306;DHT22;5198;52.382;9.020;2023-07-30T05:25:28;16.90;99.90
10306;DHT22;5198;52.382;9.020;2023-07-30T05:29:36;16.90;99.90
10306;DHT22;5198;52.382;9.020;2023-07-30T05:33:40;17.00;99.90
10306;DHT22;5198;52.382;9.020;2023-07-30T05:37:43;17.00;99.90
10306;DHT22;5198;52.382;9.020;2023-07-30T05:41:47;17.00;99.90
10306;DHT22;5198;52.382;9.020;2023-07-30T05:45:50;17.10;99.90
10306;DHT22;5198;52.382;9.020;2023-07-30T05:49:53;17.10;99.90
10306;DHT22;5198;52.382;9.020;2023-07-30T05:53:56;17.10;99.90
10306;DHT22;5198;52.382;9.020;2023-07-30T06:02:22;17.20;99.90
10306;DHT22;5198;52.382;9.020;2023-07-30T06:06:36;17.20;99.90
10306;DHT22;5198;52.382;9.020;2023-07-30T06:10:39;17.20;99.90
10306;DHT22;5198;52.382;9.020;2023-07-30T06:14:45;17.30;99.90
10306;DHT22;5198;52.382;9.020;2023-07-30T06:18:49;17.30;99.90
10306;DHT22;5198;52.382;9.020;2023-07-30T06:22:53;17.40;99.90
10306;DHT22;5198;52.382;9.020;2023-07-30T06:26:56;17.40;99.90
10306;DHT22;5198;52.382;9.020;2023-07-30T06:31:01;17.50;99.90
10306;DHT22;5198;52.382;9.020;2023-07-30T06:35:06;17.50;99.90
10306;DHT22;5198;52.382;9.020;2023-07-30T06:39:09;17.60;99.90
10306;DHT22;5198;52.382;9.020;2023-07-30T06:43:13;17.60;99.90
10306;DHT22;5198;52.382;9.020;2023-07-30T06:47:24;17.70;99.90
10306;DHT22;5198;52.382;9.020;2023-07-30T06:51:29;17.70;99.90
10306;DHT22;5198;52.382;9.020;2023-07-30T06:55:32;17.70;99.90
10306;DHT22;5198;52.382;9.020;2023-07-30T06:59:35;17.80;99.90
10306;DHT22;5198;52.382;9.020;2023-07-30T07:03:38;17.90;99.90
10306;DHT22;5198;52.382;9.020;2023-07-30T07:07:43;17.90;99.90
10306;DHT22;5198;52.382;9.020;2023-07-30T07:11:46;18.00;99.90
10306;DHT22;5198;52.382;9.020;2023-07-30T07:15:51;18.10;99.90
10306;DHT22;5198;52.382;9.020;2023-07-30T07:19:54;18.20;99.90
10306;DHT22;5198;52.382;9.020;2023-07-30T07:23:58;18.30;99.90
10306;DHT22;5198;52.382;9.020;2023-07-30T07:28:01;18.30;99.90
10306;DHT22;5198;52.382;9.020;2023-07-30T07:32:05;18.40;99.90
10306;DHT22;5198;52.382;9.020;2023-07-30T07:36:09;18.40;99.90
10306;DHT22;5198;52.382;9.020;2023-07-30T07:40:13;18.60;99.90
10306;DHT22;5198;52.382;9.020;2023-07-30T07:44:17;18.70;99.90
10306;DHT22;5198;52.382;9.020;2023-07-30T07:48:20;18.80;99.90
10306;DHT22;5198;52.382;9.020;2023-07-30T07:52:23;18.90;99.90
10306;DHT22;5198;52.382;9.020;2023-07-30T07:56:27;19.00;99.90
10306;DHT22;5198;52.382;9.020;2023-07-30T08:00:37;19.20;99.90
10306;DHT22;5198;52.382;9.020;2023-07-30T08:04:40;19.20;99.90
10306;DHT22;5198;52.382;9.020;2023-07-30T08:08:43;19.30;99.90
10306;DHT22;5198;52.382;9.020;2023-07-30T08:12:47;19.30;99.90
10306;DHT22;5198;52.382;9.020;2023-07-30T08:16:50;19.30;99.90
10306;DHT22;5198;52.382;9.020;2023-07-30T08:20:53;19.40;99.90
10306;DHT22;5198;52.382;9.020;2023-07-30T08:24:56;19.40;99.90
10306;DHT22;5198;52.382;9.020;2023-07-30T08:29:01;19.40;99.90
10306;DHT22;5198;52.382;9.020;2023-07-30T08:33:04;19.40;99.90
10306;DHT22;5198;52.382;9.020;2023-07-30T08:37:07;19.30;99.90
10306;DHT22;5198;52.382;9.020;2023-07-30T08:41:10;19.30;99.90
10306;DHT22;5198;52.382;9.020;2023-07-30T08:45:15;19.20;99.90
10306;DHT22;5198;52.382;9.020;2023-07-30T08:49:18;19.20;99.90
10306;DHT22;5198;52.382;9.020;2023-07-30T08:53:20;19.10;99.90
10306;DHT22;5198;52.382;9.020;2023-07-30T08:57:23;19.10;99.90
10306;DHT22;5198;52.382;9.020;2023-07-30T09:01:29;19.00;99.90
10306;DHT22;5198;52.382;9.020;2023-07-30T09:05:32;19.00;99.90
10306;DHT22;5198;52.382;9.020;2023-07-30T09:09:35;19.00;99.90
10306;DHT22;5198;52.382;9.020;2023-07-30T09:13:41;19.00;99.90
10306;DHT22;5198;52.382;9.020;2023-07-30T09:17:45;19.00;99.90
10306;DHT22;5198;52.382;9.020;2023-07-30T09:21:48;19.00;99.90
10306;DHT22;5198;52.382;9.020;2023-07-30T09:25:53;19.00;99.90
10306;DHT22;5198;52.382;9.020;2023-07-30T09:30:01;19.10;99.90
10306;DHT22;5198;52.382;9.020;2023-07-30T09:34:05;19.20;99.90
10306;DHT22;5198;52.382;9.020;2023-07-30T09:38:08;19.20;99.90
10306;DHT22;5198;52.382;9.020;2023-07-30T09:42:13;19.20;99.90
10306;DHT22;5198;52.382;9.020;2023-07-30T09:46:16;19.20;99.90
10306;DHT22;5198;52.382;9.020;2023-07-30T09:50:21;19.20;99.90
10306;DHT22;5198;52.382;9.020;2023-07-30T09:54:24;19.20;99.90
10306;DHT22;5198;52.382;9.020;2023-07-30T09:58:26;19.10;99.90
10306;DHT22;5198;52.382;9.020;2023-07-30T10:02:29;19.00;99.90
10306;DHT22;5198;52.382;9.020;2023-07-30T10:06:35;18.90;99.90
10306;DHT22;5198;52.382;9.020;2023-07-30T10:10:39;18.90;99.90
10306;DHT22;5198;52.382;9.020;2023-07-30T10:14:42;18.80;99.90
10306;DHT22;5198;52.382;9.020;2023-07-30T10:18:45;18.80;99.90
10306;DHT22;5198;52.382;9.020;2023-07-30T10:22:55;18.80;99.90
10306;DHT22;5198;52.382;9.020;2023-07-30T10:27:01;18.80;99.90
10306;DHT22;5198;52.382;9.020;2023-07-30T10:31:07;18.90;99.90
10306;DHT22;5198;52.382;9.020;2023-07-30T10:35:17;18.90;99.90
10306;DHT22;5198;52.382;9.020;2023-07-30T10:39:38;18.90;99.90
10306;DHT22;5198;52.382;9.020;2023-07-30T10:43:42;19.00;99.90
10306;DHT22;5198;52.382;9.020;2023-07-30T10:47:46;19.20;99.90
10306;DHT22;5198;52.382;9.020;2023-07-30T10:51:50;19.40;99.90
10306;DHT22;5198;52.382;9.020;2023-07-30T10:55:57;19.50;99.90
10306;DHT22;5198;52.382;9.020;2023-07-30T11:00:01;19.70;99.90
10306;DHT22;5198;52.382;9.020;2023-07-30T11:04:08;19.90;99.90
10306;DHT22;5198;52.382;9.020;2023-07-30T11:08:11;20.00;99.90
10306;DHT22;5198;52.382;9.020;2023-07-30T11:12:15;20.20;99.90
10306;DHT22;5198;52.382;9.020;2023-07-30T11:16:23;20.40;99.90
10306;DHT22;5198;52.382;9.020;2023-07-30T11:20:26;20.90;99.90
10306;DHT22;5198;52.382;9.020;2023-07-30T11:24:35;21.00;99.90
10306;DHT22;5198;52.382;9.020;2023-07-30T11:28:39;21.30;99.90
10306;DHT22;5198;52.382;9.020;2023-07-30T11:36:59;22.00;99.90
10306;DHT22;5198;52.382;9.020;2023-07-30T11:41:02;22.00;99.90
10306;DHT22;5198;52.382;9.020;2023-07-30T11:53:14;22.50;99.90
10306;DHT22;5198;52.382;9.020;2023-07-30T11:57:17;22.50;99.90
10306;DHT22;5198;52.382;9.020;2023-07-30T12:01:20;22.60;99.90
10306;DHT22;5198;52.382;9.020;2023-07-30T12:05:31;22.60;99.90
10306;DHT22;5198;52.382;9.020;2023-07-30T12:09:36;22.60;99.90
10306;DHT22;5198;52.382;9.020;2023-07-30T12:13:43;22.70;99.90
10306;DHT22;5198;52.382;9.020;2023-07-30T12:17:47;22.80;99.90
10306;DHT22;5198;52.382;9.020;2023-07-30T12:21:50;22.90;99.90
10306;DHT22;5198;52.382;9.020;2023-07-30T12:25:55;23.00;99.90
10306;DHT22;5198;52.382;9.020;2023-07-30T12:29:58;23.10;99.90
10306;DHT22;5198;52.382;9.020;2023-07-30T12:34:01;23.20;99.90
10306;DHT22;5198;52.382;9.020;2023-07-30T12:38:06;23.20;99.90
10306;DHT22;5198;52.382;9.020;2023-07-30T12:42:10;23.20;99.90
10306;DHT22;5198;52.382;9.020;2023-07-30T12:46:13;23.20;99.90
10306;DHT22;5198;52.382;9.020;2023-07-30T12:50:16;23.20;99.90
10306;DHT22;5198;52.382;9.020;2023-07-30T12:54:19;23.20;99.90
10306;DHT22;5198;52.382;9.020;2023-07-30T12:58:24;23.30;99.90
10306;DHT22;5198;52.382;9.020;2023-07-30T13:02:27;23.40;99.90
10306;DHT22;5198;52.382;9.020;2023-07-30T13:06:30;23.50;99.90
10306;DHT22;5198;52.382;9.020;2023-07-30T13:10:34;23.50;99.90
10306;DHT22;5198;52.382;9.020;2023-07-30T13:14:38;23.40;99.90
10306;DHT22;5198;52.382;9.020;2023-07-30T13:18:41;23.50;99.90
10306;DHT22;5198;52.382;9.020;2023-07-30T13:22:44;23.50;99.90
10306;DHT22;5198;52.382;9.020;2023-07-30T13:26:47;23.60;99.90
10306;DHT22;5198;52.382;9.020;2023-07-30T13:30:51;23.50;99.90
10306;DHT22;5198;52.382;9.020;2023-07-30T13:34:54;23.50;99.90
10306;DHT22;5198;52.382;9.020;2023-07-30T13:38:58;23.50;99.90
10306;DHT22;5198;52.382;9.020;2023-07-30T13:43:01;23.50;99.90
10306;DHT22;5198;52.382;9.020;2023-07-30T13:47:06;23.40;99.90
10306;DHT22;5198;52.382;9.020;2023-07-30T13:51:09;23.30;99.90
10306;DHT22;5198;52.382;9.020;2023-07-30T13:55:12;23.20;99.90
10306;DHT22;5198;52.382;9.020;2023-07-30T13:59:15;23.10;99.90
10306;DHT22;5198;52.382;9.020;2023-07-30T14:03:19;23.00;99.90
10306;DHT22;5198;52.382;9.020;2023-07-30T14:07:23;22.80;99.90
10306;DHT22;5198;52.382;9.020;2023-07-30T14:11:26;22.70;99.90
10306;DHT22;5198;52.382;9.020;2023-07-30T14:15:30;22.60;99.90
10306;DHT22;5198;52.382;9.020;2023-07-30T14:19:35;22.50;99.90
10306;DHT22;5198;52.382;9.020;2023-07-30T14:23:38;22.40;99.90
10306;DHT22;5198;52.382;9.020;2023-07-30T14:27:41;22.40;99.90
10306;DHT22;5198;52.382;9.020;2023-07-30T14:31:44;22.30;99.90
10306;DHT22;5198;52.382;9.020;2023-07-30T14:35:49;22.30;99.90
10306;DHT22;5198;52.382;9.020;2023-07-30T14:39:54;22.30;99.90
10306;DHT22;5198;52.382;9.020;2023-07-30T14:43:57;22.40;99.90
10306;DHT22;5198;52.382;9.020;2023-07-30T14:48:00;22.50;99.90
10306;DHT22;5198;52.382;9.020;2023-07-30T14:52:05;22.60;99.90
10306;DHT22;5198;52.382;9.020;2023-07-30T14:56:08;22.70;99.90
10306;DHT22;5198;52.382;9.020;2023-07-30T15:00:12;22.80;99.90
10306;DHT22;5198;52.382;9.020;2023-07-30T15:04:19;23.00;99.90
10306;DHT22;5198;52.382;9.020;2023-07-30T15:08:23;23.10;99.90
10306;DHT22;5198;52.382;9.020;2023-07-30T15:12:27;23.20;99.90
10306;DHT22;5198;52.382;9.020;2023-07-30T15:16:33;23.20;99.90
10306;DHT22;5198;52.382;9.020;2023-07-30T15:20:37;23.10;99.90
10306;DHT22;5198;52.382;9.020;2023-07-30T15:24:42;23.10;99.90
10306;DHT22;5198;52.382;9.020;2023-07-30T15:28:45;23.00;99.90
10306;DHT22;5198;52.382;9.020;2023-07-30T15:32:49;22.90;99.90
10306;DHT22;5198;52.382;9.020;2023-07-30T15:36:52;22.80;99.90
10306;DHT22;5198;52.382;9.020;2023-07-30T15:40:57;22.80;99.90
10306;DHT22;5198;52.382;9.020;2023-07-30T15:45:00;22.80;99.90
10306;DHT22;5198;52.382;9.020;2023-07-30T15:49:03;22.90;99.90
10306;DHT22;5198;52.382;9.020;2023-07-30T15:53:06;23.10;99.90
10306;DHT22;5198;52.382;9.020;2023-07-30T15:57:11;23.20;99.90
10306;DHT22;5198;52.382;9.020;2023-07-30T16:01:16;23.50;99.90
10306;DHT22;5198;52.382;9.020;2023-07-30T16:05:19;23.70;99.90
10306;DHT22;5198;52.382;9.020;2023-07-30T16:09:22;23.70;99.90
10306;DHT22;5198;52.382;9.020;2023-07-30T16:13:27;23.90;99.90
10306;DHT22;5198;52.382;9.020;2023-07-30T16:17:30;24.00;99.90
10306;DHT22;5198;52.382;9.020;2023-07-30T16:21:33;24.00;99.90
10306;DHT22;5198;52.382;9.020;2023-07-30T16:25:36;23.90;99.90
10306;DHT22;5198;52.382;9.020;2023-07-30T16:29:41;23.70;99.90
10306;DHT22;5198;52.382;9.020;2023-07-30T16:33:44;23.60;99.90
10306;DHT22;5198;52.382;9.020;2023-07-30T16:37:47;23.30;99.90
10306;DHT22;5198;52.382;9.020;2023-07-30T16:41:49;23.00;99.90
10306;DHT22;5198;52.382;9.020;2023-07-30T16:45:59;22.80;99.90
10306;DHT22;5198;52.382;9.020;2023-07-30T16:50:03;22.60;99.90
10306;DHT22;5198;52.382;9.020;2023-07-30T16:54:06;22.40;99.90
10306;DHT22;5198;52.382;9.020;2023-07-30T16:58:12;22.40;99.90
10306;DHT22;5198;52.382;9.020;2023-07-30T17:02:16;22.40;99.90
10306;DHT22;5198;52.382;9.020;2023-07-30T17:06:19;22.50;99.90
10306;DHT22;5198;52.382;9.020;2023-07-30T17:10:22;22.50;99.90
10306;DHT22;5198;52.382;9.020;2023-07-30T17:14:26;22.50;99.90
10306;DHT22;5198;52.382;9.020;2023-07-30T17:18:32;22.40;99.90
10306;DHT22;5198;52.382;9.020;2023-07-30T17:22:35;22.30;99.90
10306;DHT22;5198;52.382;9.020;2023-07-30T17:26:38;22.20;99.90
10306;DHT22;5198;52.382;9.020;2023-07-30T17:30:49;22.10;99.90
10306;DHT22;5198;52.382;9.020;2023-07-30T17:34:54;22.00;99.90
10306;DHT22;5198;52.382;9.020;2023-07-30T17:38:58;21.90;99.90
10306;DHT22;5198;52.382;9.020;2023-07-30T17:43:01;21.80;99.90
10306;DHT22;5198;52.382;9.020;2023-07-30T17:47:05;21.80;99.90
10306;DHT22;5198;52.382;9.020;2023-07-30T17:51:13;21.70;99.90
10306;DHT22;5198;52.382;9.020;2023-07-30T17:55:17;21.60;99.90
10306;DHT22;5198;52.382;9.020;2023-07-30T17:59:22;21.60;99.90
10306;DHT22;5198;52.382;9.020;2023-07-30T18:03:27;21.50;99.90
10306;DHT22;5198;52.382;9.020;2023-07-30T18:07:31;21.50;99.90
10306;DHT22;5198;52.382;9.020;2023-07-30T18:11:35;21.40;99.90
10306;DHT22;5198;52.382;9.020;2023-07-30T18:19:48;21.20;99.90
10306;DHT22;5198;52.382;9.020;2023-07-30T18:23:53;21.10;99.90
10306;DHT22;5198;52.382;9.020;2023-07-30T18:27:58;21.10;99.90
10306;DHT22;5198;52.382;9.020;2023-07-30T18:32:05;21.00;99.90
10306;DHT22;5198;52.382;9.020;2023-07-30T18:36:10;20.90;99.90
10306;DHT22;5198;52.382;9.020;2023-07-30T18:40:15;20.80;99.90
10306;DHT22;5198;52.382;9.020;2023-07-30T18:44:20;20.70;99.90
10306;DHT22;5198;52.382;9.020;2023-07-30T18:48:23;20.60;99.90
10306;DHT22;5198;52.382;9.020;2023-07-30T18:52:26;20.50;99.90
10306;DHT22;5198;52.382;9.020;2023-07-30T18:56:30;20.40;99.90
10306;DHT22;5198;52.382;9.020;2023-07-30T19:00:33;20.40;99.90
10306;DHT22;5198;52.382;9.020;2023-07-30T19:04:36;20.30;99.90
10306;DHT22;5198;52.382;9.020;2023-07-30T19:08:39;20.30;99.90
10306;DHT22;5198;52.382;9.020;2023-07-30T19:12:45;20.20;99.90
10306;DHT22;5198;52.382;9.020;2023-07-30T19:16:51;20.20;99.90
10306;DHT22;5198;52.382;9.020;2023-07-30T19:20:54;20.20;99.90
10306;DHT22;5198;52.382;9.020;2023-07-30T19:29:06;20.10;99.90
10306;DHT22;5198;52.382;9.020;2023-07-30T19:33:16;20.00;99.90
10306;DHT22;5198;52.382;9.020;2023-07-30T19:37:19;20.00;99.90
10306;DHT22;5198;52.382;9.020;2023-07-30T19:41:23;19.90;99.90
10306;DHT22;5198;52.382;9.020;2023-07-30T19:45:33;19.90;99.90
10306;DHT22;5198;52.382;9.020;2023-07-30T19:49:37;19.90;99.90
10306;DHT22;5198;52.382;9.020;2023-07-30T19:53:40;19.80;99.90
10306;DHT22;5198;52.382;9.020;2023-07-30T19:57:43;19.80;99.90
10306;DHT22;5198;52.382;9.020;2023-07-30T20:01:48;19.80;99.90
10306;DHT22;5198;52.382;9.020;2023-07-30T20:05:51;19.70;99.90
10306;DHT22;5198;52.382;9.020;2023-07-30T20:09:54;19.70;99.90
10306;DHT22;5198;52.382;9.020;2023-07-30T20:13:57;19.70;99.90
10306;DHT22;5198;52.382;9.020;2023-07-30T20:18:01;19.60;99.90
10306;DHT22;5198;52.382;9.020;2023-07-30T20:22:05;19.60;99.90
10306;DHT22;5198;52.382;9.020;2023-07-30T20:26:15;19.50;99.90
10306;DHT22;5198;52.382;9.020;2023-07-30T20:30:18;19.50;99.90
10306;DHT22;5198;52.382;9.020;2023-07-30T20:34:32;19.50;99.90
10306;DHT22;5198;52.382;9.020;2023-07-30T20:38:35;19.50;99.90
10306;DHT22;5198;52.382;9.020;2023-07-30T20:46:44;19.40;99.90
10306;DHT22;5198;52.382;9.020;2023-07-30T20:50:49;19.40;99.90
10306;DHT22;5198;52.382;9.020;2023-07-30T20:54:53;19.40;99.90
10306;DHT22;5198;52.382;9.020;2023-07-30T20:59:04;19.40;99.90
10306;DHT22;5198;52.382;9.020;2023-07-30T21:03:13;19.30;99.90
10306;DHT22;5198;52.382;9.020;2023-07-30T21:07:17;19.40;99.90
10306;DHT22;5198;52.382;9.020;2023-07-30T21:11:21;19.40;99.90
10306;DHT22;5198;52.382;9.020;2023-07-30T21:15:24;19.30;99.90
10306;DHT22;5198;52.382;9.020;2023-07-30T21:19:27;19.30;99.90
10306;DHT22;5198;52.382;9.020;2023-07-30T21:23:39;19.30;99.90
10306;DHT22;5198;52.382;9.020;2023-07-30T21:27:45;19.30;99.90
10306;DHT22;5198;52.382;9.020;2023-07-30T21:31:57;19.20;99.90
10306;DHT22;5198;52.382;9.020;2023-07-30T21:36:00;19.20;99.90
10306;DHT22;5198;52.382;9.020;2023-07-30T21:40:05;19.20;99.90
10306;DHT22;5198;52.382;9.020;2023-07-30T21:44:08;19.10;99.90
10306;DHT22;5198;52.382;9.020;2023-07-30T21:48:11;19.00;99.90
10306;DHT22;5198;52.382;9.020;2023-07-30T21:52:21;19.00;99.90
10306;DHT22;5198;52.382;9.020;2023-07-30T21:56:27;18.90;99.90
10306;DHT22;5198;52.382;9.020;2023-07-30T22:00:32;18.80;99.90
10306;DHT22;5198;52.382;9.020;2023-07-30T22:04:35;18.80;99.90
10306;DHT22;5198;52.382;9.020;2023-07-30T22:08:43;18.70;99.90
10306;DHT22;5198;52.382;9.020;2023-07-30T22:12:48;18.70;99.90
10306;DHT22;5198;52.382;9.020;2023-07-30T22:16:52;18.60;99.90
10306;DHT22;5198;52.382;9.020;2023-07-30T22:20:55;18.50;99.90
10306;DHT22;5198;52.382;9.020;2023-07-30T22:24:58;18.50;99.90
10306;DHT22;5198;52.382;9.020;2023-07-30T22:29:05;18.40;99.90
10306;DHT22;5198;52.382;9.020;2023-07-30T22:33:09;18.30;99.90
10306;DHT22;5198;52.382;9.020;2023-07-30T22:37:12;18.20;99.90
10306;DHT22;5198;52.382;9.020;2023-07-30T22:41:14;18.20;99.90
10306;DHT22;5198;52.382;9.020;2023-07-30T22:45:19;18.10;99.90
10306;DHT22;5198;52.382;9.020;2023-07-30T22:49:22;18.00;99.90
10306;DHT22;5198;52.382;9.020;2023-07-30T22:53:25;18.00;99.90
10306;DHT22;5198;52.382;9.020;2023-07-30T23:01:35;17.90;99.90
10306;DHT22;5198;52.382;9.020;2023-07-30T23:05:38;17.90;99.90
10306;DHT22;5198;52.382;9.020;2023-07-30T23:09:43;17.90;99.90
10306;DHT22;5198;52.382;9.020;2023-07-30T23:13:52;17.90;99.90
10306;DHT22;5198;52.382;9.020;2023-07-30T23:17:56;17.80;99.90
10306;DHT22;5198;52.382;9.020;2023-07-30T23:21:59;17.80;99.90
10306;DHT22;5198;52.382;9.020;2023-07-30T23:26:05;17.80;99.90
10306;DHT22;5198;52.382;9.020;2023-07-30T23:30:10;17.80;99.90
10306;DHT22;5198;52.382;9.020;2023-07-30T23:34:14;17.70;99.90
10306;DHT22;5198;52.382;9.020;2023-07-30T23:38:19;17.70;99.90
10306;DHT22;5198;52.382;9.020;2023-07-30T23:42:22;17.70;99.90
10306;DHT22;5198;52.382;9.020;2023-07-30T23:46:25;17.70;99.90
10306;DHT22;5198;52.382;9.020;2023-07-30T23:50:29;17.60;99.90
10306;DHT22;5198;52.382;9.020;2023-07-30T23:54:33;17.60;99.90
10306;DHT22;5198;52.382;9.020;2023-07-30T23:58:36;17.60;99.90
